createdAt,value
2018-10-09T00:02:20.653Z,21.80
2018-10-09T00:04:49.325Z,22.17
2018-10-09T00:07:18.020Z,22.67
2018-10-09T00:09:46.696Z,21.77
2018-10-09T00:12:15.373Z,24.27
2018-10-09T00:14:44.033Z,23.77
2018-10-09T00:17:12.730Z,24.20
2018-10-09T00:19:41.384Z,23.13
2018-10-09T00:22:10.070Z,22.77
2018-10-09T00:24:38.811Z,21.60
2018-10-09T00:27:07.505Z,22.80
2018-10-09T00:29:36.188Z,21.50
2018-10-09T00:32:04.879Z,23.37
2018-10-09T00:34:33.516Z,25.80
2018-10-09T00:37:02.293Z,24.10
2018-10-09T00:39:30.931Z,22.93
2018-10-09T00:41:59.617Z,23.40
2018-10-09T00:44:28.331Z,23.87
2018-10-09T00:46:57.001Z,22.97
2018-10-09T00:49:25.674Z,22.60
2018-10-09T00:51:54.379Z,22.57
2018-10-09T00:54:23.122Z,23.77
2018-10-09T00:56:51.820Z,22.97
2018-10-09T00:59:20.503Z,23.20
2018-10-09T01:01:49.202Z,22.10
2018-10-09T01:04:17.904Z,21.97
2018-10-09T01:06:46.666Z,20.33
2018-10-09T01:09:15.398Z,22.27
2018-10-09T01:11:44.077Z,22.43
2018-10-09T01:14:12.768Z,22.00
2018-10-09T01:16:41.520Z,24.40
2018-10-09T01:19:10.170Z,22.70
2018-10-09T01:21:38.849Z,24.67
2018-10-09T01:24:07.566Z,22.43
2018-10-09T01:26:36.278Z,24.33
2018-10-09T01:29:05.029Z,24.30
2018-10-09T01:31:33.692Z,25.80
2018-10-09T01:34:02.381Z,24.80
2018-10-09T01:36:31.066Z,24.20
2018-10-09T01:38:59.741Z,22.83
2018-10-09T01:41:28.429Z,25.57
2018-10-09T01:43:57.086Z,24.80
2018-10-09T01:46:25.855Z,24.10
2018-10-09T01:48:54.505Z,24.80
2018-10-09T01:51:23.245Z,23.60
2018-10-09T01:53:51.908Z,24.40
2018-10-09T01:56:20.524Z,23.67
2018-10-09T01:58:49.205Z,24.53
2018-10-09T02:01:17.853Z,23.93
2018-10-09T02:03:46.534Z,22.87
2018-10-09T02:06:15.208Z,23.83
2018-10-09T02:08:43.905Z,23.80
2018-10-09T02:11:12.573Z,25.00
2018-10-09T02:13:41.330Z,26.60
2018-10-09T02:16:10.017Z,24.30
2018-10-09T02:18:38.704Z,26.53
2018-10-09T02:21:07.488Z,27.50
2018-10-09T02:23:36.124Z,25.17
2018-10-09T02:26:04.812Z,23.80
2018-10-09T02:28:33.428Z,25.10
2018-10-09T02:31:02.086Z,26.70
2018-10-09T02:33:30.851Z,27.80
2018-10-09T02:35:59.498Z,25.90
2018-10-09T02:38:28.191Z,28.37
2018-10-09T02:40:56.873Z,29.97
2018-10-09T02:43:25.557Z,28.27
2018-10-09T02:45:54.242Z,28.93
2018-10-09T02:48:22.912Z,28.73
2018-10-09T02:50:51.599Z,29.57
2018-10-09T02:53:20.297Z,28.40
2018-10-09T02:55:48.928Z,30.20
2018-10-09T02:58:17.540Z,30.90
2018-10-09T03:00:46.304Z,29.23
2018-10-09T03:03:14.936Z,28.90
2018-10-09T03:05:43.567Z,28.20
2018-10-09T03:08:12.297Z,30.10
2018-10-09T03:10:40.969Z,27.67
2018-10-09T03:13:09.687Z,28.33
2018-10-09T03:15:38.294Z,28.53
2018-10-09T03:18:06.940Z,29.00
2018-10-09T03:20:35.712Z,28.17
2018-10-09T03:23:04.358Z,27.33
2018-10-09T03:25:33.003Z,29.57
2018-10-09T03:28:01.682Z,26.47
2018-10-09T03:30:30.344Z,27.77
2018-10-09T03:32:58.980Z,27.30
2018-10-09T03:35:27.607Z,27.27
2018-10-09T03:37:56.283Z,28.50
2018-10-09T03:40:24.936Z,27.60
2018-10-09T03:42:53.589Z,29.53
2018-10-09T03:45:22.232Z,28.30
2018-10-09T03:47:50.873Z,27.10
2018-10-09T03:50:19.511Z,27.70
2018-10-09T03:52:48.205Z,29.40
2018-10-09T03:55:16.901Z,27.20
2018-10-09T03:57:45.556Z,28.90
2018-10-09T04:00:14.276Z,29.70
2018-10-09T04:02:42.933Z,28.83
2018-10-09T04:05:11.563Z,30.40
2018-10-09T04:07:40.357Z,30.87
2018-10-09T04:10:09.046Z,30.47
2018-10-09T04:12:37.724Z,30.10
2018-10-09T04:15:06.871Z,32.13
2018-10-09T04:17:35.551Z,31.57
2018-10-09T04:20:04.785Z,31.73
2018-10-09T04:22:33.470Z,32.97
2018-10-09T04:25:02.164Z,31.00
2018-10-09T04:27:30.852Z,29.70
2018-10-09T04:29:59.506Z,30.73
2018-10-09T04:32:28.253Z,30.23
2018-10-09T04:34:56.905Z,29.47
2018-10-09T04:37:25.572Z,28.87
2018-10-09T04:39:54.254Z,29.23
2018-10-09T04:42:22.941Z,29.73
2018-10-09T04:44:51.595Z,30.33
2018-10-09T04:47:20.317Z,27.47
2018-10-09T04:49:48.941Z,32.10
2018-10-09T04:52:17.605Z,29.20
2018-10-09T04:54:46.313Z,31.27
2018-10-09T04:57:14.950Z,32.03
2018-10-09T04:59:43.587Z,30.63
2018-10-09T05:02:12.276Z,28.50
2018-10-09T05:04:40.978Z,30.03
2018-10-09T05:07:09.676Z,29.93
2018-10-09T05:09:38.339Z,33.47
2018-10-09T05:12:07.024Z,31.33
2018-10-09T05:14:35.778Z,31.03
2018-10-09T05:17:04.463Z,33.10
2018-10-09T05:19:33.080Z,31.57
2018-10-09T05:22:01.731Z,29.50
2018-10-09T05:24:30.452Z,30.37
2018-10-09T05:26:59.197Z,34.13
2018-10-09T05:29:27.992Z,30.60
2018-10-09T05:31:56.681Z,30.97
2018-10-09T05:34:25.440Z,33.70
2018-10-09T05:36:54.150Z,31.30
2018-10-09T05:39:22.850Z,33.20
2018-10-09T05:41:51.501Z,30.50
2018-10-09T05:44:20.253Z,31.10
2018-10-09T05:46:48.906Z,31.47
2018-10-09T05:49:17.567Z,32.57
2018-10-09T05:51:46.308Z,32.40
2018-10-09T05:54:14.965Z,33.30
2018-10-09T05:56:43.623Z,32.60
2018-10-09T05:59:12.385Z,34.83
2018-10-09T06:01:41.071Z,38.83
2018-10-09T06:04:10.391Z,38.30
2018-10-09T06:06:39.101Z,38.13
2018-10-09T06:09:09.177Z,36.37
2018-10-09T06:11:38.494Z,37.07
2018-10-09T06:14:07.363Z,36.37
2018-10-09T06:16:36.070Z,38.80
2018-10-09T06:19:04.771Z,38.53
2018-10-09T06:21:33.555Z,37.40
2018-10-09T06:24:02.244Z,38.03
2018-10-09T06:26:31.028Z,38.47
2018-10-09T06:28:59.665Z,35.67
2018-10-09T06:31:28.403Z,36.53
2018-10-09T06:33:57.217Z,39.33
2018-10-09T06:36:25.868Z,35.10
2018-10-09T06:38:54.577Z,36.20
2018-10-09T06:41:23.312Z,40.17
2018-10-09T06:43:52.023Z,40.73
2018-10-09T06:46:21.106Z,38.33
2018-10-09T06:48:50.148Z,35.70
2018-10-09T06:51:18.887Z,37.60
2018-10-09T06:53:47.697Z,72.27
2018-10-09T06:56:16.880Z,46.17
2018-10-09T06:58:45.484Z,47.57
2018-10-09T07:01:14.181Z,44.67
2018-10-09T07:03:42.864Z,48.33
2018-10-09T07:06:11.520Z,42.37
2018-10-09T07:08:40.165Z,40.97
2018-10-09T07:11:08.866Z,37.97
2018-10-09T07:13:37.460Z,39.50
2018-10-09T07:16:06.120Z,33.10
2018-10-09T07:18:34.783Z,37.60
2018-10-09T07:21:03.461Z,38.30
2018-10-09T07:23:32.057Z,39.20
2018-10-09T07:26:00.728Z,34.87
2018-10-09T07:28:29.408Z,35.80
2018-10-09T07:30:58.047Z,37.50
2018-10-09T07:33:26.787Z,33.07
2018-10-09T07:35:55.470Z,34.33
2018-10-09T07:38:24.234Z,34.90
2018-10-09T07:40:52.921Z,33.87
2018-10-09T07:43:21.560Z,32.97
2018-10-09T07:45:50.183Z,32.37
2018-10-09T07:48:18.784Z,29.00
2018-10-09T07:50:47.534Z,28.83
2018-10-09T07:53:16.207Z,29.60
2018-10-09T07:55:44.873Z,28.73
2018-10-09T07:58:13.550Z,30.07
2018-10-09T08:00:42.207Z,28.70
2018-10-09T08:03:10.846Z,31.77
2018-10-09T08:05:39.517Z,33.87
2018-10-09T08:08:08.162Z,32.57
2018-10-09T08:10:36.862Z,34.30
2018-10-09T08:13:05.562Z,35.97
2018-10-09T08:15:34.259Z,37.07
2018-10-09T08:18:02.946Z,36.13
2018-10-09T08:20:31.615Z,37.03
2018-10-09T08:23:00.406Z,35.73
2018-10-09T08:25:28.976Z,37.30
2018-10-09T08:27:57.654Z,39.67
2018-10-09T08:30:26.343Z,39.80
2018-10-09T08:32:55.033Z,38.63
2018-10-09T08:35:23.639Z,38.07
2018-10-09T08:37:52.301Z,34.97
2018-10-09T08:40:21.012Z,32.83
2018-10-09T08:42:49.623Z,32.00
2018-10-09T08:45:18.293Z,34.00
2018-10-09T08:47:46.891Z,32.90
2018-10-09T08:50:15.519Z,32.77
2018-10-09T08:52:44.152Z,32.90
2018-10-09T08:55:12.941Z,30.53
2018-10-09T08:57:41.727Z,27.83
2018-10-09T09:00:10.990Z,28.77
2018-10-09T09:02:39.644Z,28.30
2018-10-09T09:05:08.683Z,32.40
2018-10-09T09:07:37.443Z,28.23
2018-10-09T09:10:06.690Z,27.47
2018-10-09T09:12:35.354Z,29.83
2018-10-09T09:15:04.135Z,27.90
2018-10-09T09:17:32.820Z,29.67
2018-10-09T09:20:01.562Z,27.10
2018-10-09T09:22:30.226Z,27.73
2018-10-09T09:24:58.920Z,26.97
2018-10-09T09:27:27.662Z,26.43
2018-10-09T09:29:56.326Z,28.50
2018-10-09T09:32:24.981Z,26.80
2018-10-09T09:34:53.625Z,26.57
2018-10-09T09:37:22.346Z,27.43
2018-10-09T09:39:50.989Z,26.23
2018-10-09T09:42:19.623Z,26.60
2018-10-09T09:44:48.262Z,27.83
2018-10-09T09:47:16.891Z,26.43
2018-10-09T09:49:45.542Z,24.20
2018-10-09T09:52:14.223Z,26.00
2018-10-09T09:54:42.873Z,25.80
2018-10-09T09:57:11.464Z,25.87
2018-10-09T09:59:40.169Z,23.90
2018-10-09T10:02:08.836Z,23.33
2018-10-09T10:04:37.692Z,23.60
2018-10-09T10:07:06.364Z,22.07
2018-10-09T10:09:35.033Z,21.23
2018-10-09T10:12:03.707Z,22.90
2018-10-09T10:14:32.346Z,22.60
2018-10-09T10:17:01.025Z,20.70
2018-10-09T10:19:29.670Z,21.20
2018-10-09T10:21:58.289Z,21.30
2018-10-09T10:24:26.924Z,19.50
2018-10-09T10:26:55.609Z,20.53
2018-10-09T10:29:24.306Z,20.40
2018-10-09T10:31:53.006Z,19.53
2018-10-09T10:34:21.683Z,20.07
2018-10-09T10:36:50.595Z,19.40
2018-10-09T10:39:18.970Z,20.17
2018-10-09T10:41:47.615Z,19.33
2018-10-09T10:44:16.253Z,19.80
2018-10-09T10:46:44.893Z,19.73
2018-10-09T10:49:14.799Z,20.67
2018-10-09T10:51:43.441Z,19.80
2018-10-09T10:54:12.130Z,21.33
2018-10-09T10:56:40.812Z,20.03
2018-10-09T10:59:09.420Z,20.20
2018-10-09T11:01:38.964Z,19.87
2018-10-09T11:04:07.665Z,19.47
2018-10-09T11:06:36.320Z,21.43
2018-10-09T11:09:07.987Z,21.60
2018-10-09T11:11:36.700Z,22.50
2018-10-09T11:14:05.378Z,21.20
2018-10-09T11:16:34.081Z,21.97
2018-10-09T11:19:02.680Z,22.20
2018-10-09T11:21:31.347Z,22.27
2018-10-09T11:23:59.997Z,21.97
2018-10-09T11:26:28.674Z,23.63
2018-10-09T11:28:57.309Z,22.37
2018-10-09T11:31:25.973Z,21.83
2018-10-09T11:33:54.593Z,22.80
2018-10-09T11:36:23.220Z,21.43
2018-10-09T11:38:51.858Z,21.90
2018-10-09T11:41:20.487Z,21.60
2018-10-09T11:43:49.156Z,20.83
2018-10-09T11:46:17.814Z,21.33
2018-10-09T11:48:46.462Z,21.90
2018-10-09T11:51:15.101Z,21.03
2018-10-09T11:53:43.784Z,22.23
2018-10-09T11:56:12.443Z,19.70
2018-10-09T11:58:41.153Z,22.13
2018-10-09T12:01:10.325Z,22.20
2018-10-09T12:03:39.051Z,21.17
2018-10-09T12:06:07.786Z,20.73
2018-10-09T12:08:36.396Z,20.67
2018-10-09T12:11:05.084Z,19.73
2018-10-09T12:13:33.717Z,21.37
2018-10-09T12:16:02.414Z,20.77
2018-10-09T12:18:31.097Z,21.47
2018-10-09T12:20:59.765Z,20.63
2018-10-09T12:23:28.403Z,20.40
2018-10-09T12:25:57.092Z,20.40
2018-10-09T12:28:25.803Z,22.53
2018-10-09T12:30:54.501Z,22.83
2018-10-09T12:33:23.141Z,21.10
2018-10-09T12:35:51.772Z,19.03
2018-10-09T12:38:20.452Z,17.53
2018-10-09T12:40:49.669Z,18.73
2018-10-09T12:43:18.320Z,18.10
2018-10-09T12:45:46.967Z,17.40
2018-10-09T12:48:15.641Z,17.37
2018-10-09T12:50:44.276Z,17.20
2018-10-09T12:53:12.973Z,18.10
2018-10-09T12:55:41.632Z,19.07
2018-10-09T12:58:10.248Z,17.80
2018-10-09T13:00:38.940Z,17.23
2018-10-09T13:03:07.912Z,20.40
2018-10-09T13:05:36.501Z,19.10
2018-10-09T13:08:05.205Z,19.80
2018-10-09T13:10:33.896Z,18.37
2018-10-09T13:13:02.557Z,18.07
2018-10-09T13:15:31.285Z,19.87
2018-10-09T13:18:00.034Z,19.00
2018-10-09T13:20:28.644Z,19.97
2018-10-09T13:22:57.353Z,19.77
2018-10-09T13:25:26.129Z,19.93
2018-10-09T13:27:54.797Z,22.40
2018-10-09T13:30:23.475Z,20.37
2018-10-09T13:32:52.121Z,21.20
2018-10-09T13:35:20.777Z,20.77
2018-10-09T13:37:49.508Z,21.03
2018-10-09T13:40:18.150Z,21.33
2018-10-09T13:42:46.779Z,22.87
2018-10-09T13:45:15.466Z,21.50
2018-10-09T13:47:44.188Z,20.70
2018-10-09T13:50:12.825Z,18.67
2018-10-09T13:52:41.471Z,19.80
2018-10-09T13:55:10.204Z,19.07
2018-10-09T13:57:38.894Z,19.57
2018-10-09T14:00:07.606Z,18.97
2018-10-09T14:02:36.221Z,19.13
2018-10-09T14:05:04.941Z,20.17
2018-10-09T14:07:33.541Z,20.10
2018-10-09T14:10:02.274Z,20.67
2018-10-09T14:12:30.905Z,19.60
2018-10-09T14:14:59.627Z,21.40
2018-10-09T14:17:28.317Z,21.07
2018-10-09T14:19:57.018Z,19.20
2018-10-09T14:22:25.769Z,19.40
2018-10-09T14:24:54.485Z,22.23
2018-10-09T14:27:23.088Z,21.33
2018-10-09T14:29:51.728Z,21.77
2018-10-09T14:32:20.364Z,19.40
2018-10-09T14:34:49.123Z,22.30
2018-10-09T14:37:17.740Z,22.57
2018-10-09T14:39:46.446Z,21.23
2018-10-09T14:42:15.101Z,20.03
2018-10-09T14:44:43.854Z,19.63
2018-10-09T14:47:12.501Z,19.20
2018-10-09T14:49:41.197Z,20.07
2018-10-09T14:52:09.866Z,18.63
2018-10-09T14:54:38.594Z,19.13
2018-10-09T14:57:07.240Z,21.00
2018-10-09T14:59:35.889Z,19.90
2018-10-09T15:02:04.589Z,20.73
2018-10-09T15:04:33.282Z,18.70
2018-10-09T15:07:01.963Z,20.27
2018-10-09T15:09:30.679Z,22.00
2018-10-09T15:11:59.272Z,19.97
2018-10-09T15:14:27.904Z,21.30
2018-10-09T15:16:56.587Z,19.97
2018-10-09T15:19:25.253Z,22.03
2018-10-09T15:21:53.933Z,22.37
2018-10-09T15:24:22.563Z,21.40
2018-10-09T15:26:51.345Z,20.40
2018-10-09T15:29:20.038Z,21.70
2018-10-09T15:31:48.719Z,21.13
2018-10-09T15:34:17.351Z,20.57
2018-10-09T15:36:46.009Z,18.47
2018-10-09T15:39:14.709Z,19.20
2018-10-09T15:41:43.545Z,19.83
2018-10-09T15:44:12.170Z,20.30
2018-10-09T15:46:40.946Z,22.10
2018-10-09T15:49:09.589Z,20.57
2018-10-09T15:51:38.241Z,22.30
2018-10-09T15:54:06.983Z,21.20
2018-10-09T15:56:35.666Z,21.80
2018-10-09T15:59:04.324Z,20.40
2018-10-09T16:01:33.000Z,23.00
2018-10-09T16:04:01.707Z,20.40
2018-10-09T16:06:30.329Z,22.03
2018-10-09T16:08:59.287Z,21.83
2018-10-09T16:11:27.991Z,22.33
2018-10-09T16:13:56.696Z,21.73
2018-10-09T16:16:25.359Z,23.03
2018-10-09T16:18:54.058Z,22.97
2018-10-09T16:21:22.809Z,23.20
2018-10-09T16:23:51.442Z,24.47
2018-10-09T16:26:20.118Z,22.07
2018-10-09T16:28:48.795Z,22.00
2018-10-09T16:31:17.500Z,25.50
2018-10-09T16:33:46.225Z,22.23
2018-10-09T16:36:14.959Z,22.13
2018-10-09T16:38:43.613Z,24.87
2018-10-09T16:41:12.317Z,24.10
2018-10-09T16:43:40.994Z,22.20
2018-10-09T16:46:09.689Z,22.93
2018-10-09T16:48:38.356Z,23.17
2018-10-09T16:51:07.003Z,25.10
2018-10-09T16:53:35.751Z,24.67
2018-10-09T16:56:05.573Z,22.80
2018-10-09T16:58:34.605Z,24.10
2018-10-09T17:01:03.406Z,25.07
2018-10-09T17:03:32.036Z,25.03
2018-10-09T17:06:00.838Z,26.23
2018-10-09T17:08:29.468Z,28.20
2018-10-09T17:10:58.092Z,27.90
2018-10-09T17:13:26.777Z,27.87
2018-10-09T17:15:55.495Z,29.60
2018-10-09T17:18:24.263Z,30.37
2018-10-09T17:20:53.097Z,30.10
2018-10-09T17:23:21.795Z,30.67
2018-10-09T17:25:50.490Z,32.10
2018-10-09T17:28:19.108Z,32.33
2018-10-09T17:30:47.763Z,34.17
2018-10-09T17:33:16.503Z,31.13
2018-10-09T17:35:45.217Z,31.63
2018-10-09T17:38:13.877Z,31.10
2018-10-09T17:40:42.534Z,32.77
2018-10-09T17:43:11.245Z,31.93
2018-10-09T17:45:39.896Z,32.50
2018-10-09T17:48:08.681Z,32.40
2018-10-09T17:50:37.349Z,32.00
2018-10-09T17:53:06.369Z,31.73
2018-10-09T17:55:35.141Z,32.00
2018-10-09T17:58:03.801Z,30.53
2018-10-09T18:00:32.509Z,30.63
2018-10-09T18:03:01.193Z,29.70
2018-10-09T18:05:29.853Z,30.73
2018-10-09T18:07:58.502Z,30.50
2018-10-09T18:10:27.186Z,30.80
2018-10-09T18:12:55.836Z,30.10
2018-10-09T18:15:24.572Z,27.83
2018-10-09T18:17:53.177Z,30.20
2018-10-09T18:20:21.855Z,33.40
2018-10-09T18:22:50.536Z,34.07
2018-10-09T18:25:19.153Z,35.10
2018-10-09T18:27:47.824Z,32.47
2018-10-09T18:30:16.521Z,31.53
2018-10-09T18:32:45.508Z,31.23
2018-10-09T18:35:14.062Z,33.37
2018-10-09T18:37:42.708Z,32.20
2018-10-09T18:40:11.439Z,34.80
2018-10-09T18:42:40.270Z,32.60
2018-10-09T18:45:09.018Z,33.17
2018-10-09T18:47:43.887Z,35.97
2018-10-09T18:50:12.774Z,34.70
2018-10-09T18:52:42.107Z,35.80
2018-10-09T18:55:12.874Z,36.03
2018-10-09T18:57:41.658Z,34.27
2018-10-09T19:00:10.869Z,36.07
2018-10-09T19:02:40.175Z,37.40
2018-10-09T19:05:09.646Z,34.27
2018-10-09T19:07:38.685Z,33.10
2018-10-09T19:10:07.703Z,33.30
2018-10-09T19:12:36.392Z,37.37
2018-10-09T19:15:05.238Z,33.90
2018-10-09T19:17:33.925Z,36.63
2018-10-09T19:20:02.612Z,38.03
2018-10-09T19:22:31.294Z,34.93
2018-10-09T19:24:59.949Z,33.80
2018-10-09T19:27:28.578Z,35.87
2018-10-09T19:29:57.225Z,38.37
2018-10-09T19:32:26.009Z,38.07
2018-10-09T19:34:54.641Z,37.97
2018-10-09T19:37:23.545Z,37.60
2018-10-09T19:39:52.229Z,37.10
2018-10-09T19:42:20.977Z,39.53
2018-10-09T19:44:49.701Z,36.90
2018-10-09T19:47:18.437Z,40.93
2018-10-09T19:49:47.192Z,37.07
2018-10-09T19:52:15.892Z,37.10
2018-10-09T19:54:44.532Z,36.23
2018-10-09T19:57:13.243Z,39.23
2018-10-09T19:59:41.941Z,38.50
2018-10-09T20:02:10.703Z,35.30
2018-10-09T20:04:39.610Z,36.73
2018-10-09T20:07:08.321Z,38.83
2018-10-09T20:09:36.959Z,36.80
2018-10-09T20:12:05.682Z,35.47
2018-10-09T20:14:34.441Z,36.57
2018-10-09T20:17:03.120Z,35.90
2018-10-09T20:19:31.829Z,34.93
2018-10-09T20:22:00.521Z,36.57
2018-10-09T20:24:29.187Z,37.90
2018-10-09T20:26:57.867Z,38.30
2018-10-09T20:29:26.550Z,39.03
2018-10-09T20:31:55.231Z,36.60
2018-10-09T20:34:23.922Z,38.47
2018-10-09T20:36:52.593Z,36.60
2018-10-09T20:39:21.224Z,37.30
2018-10-09T20:41:49.912Z,36.70
2018-10-09T20:44:18.578Z,36.63
2018-10-09T20:46:47.276Z,36.33
2018-10-09T20:49:16.000Z,35.13
2018-10-09T20:51:44.675Z,36.70
2018-10-09T20:54:13.256Z,38.20
2018-10-09T20:56:41.994Z,37.90
2018-10-09T20:59:10.836Z,36.83
2018-10-09T21:01:39.487Z,37.60
2018-10-09T21:04:08.292Z,36.03
2018-10-09T21:06:36.991Z,36.70
2018-10-09T21:09:06.621Z,39.17
2018-10-09T21:11:35.607Z,38.57
2018-10-09T21:14:04.237Z,36.80
2018-10-09T21:16:32.902Z,40.57
2018-10-09T21:19:01.616Z,36.50
2018-10-09T21:21:30.320Z,37.77
2018-10-09T21:23:59.022Z,39.63
2018-10-09T21:26:27.617Z,37.43
2018-10-09T21:28:56.579Z,39.77
2018-10-09T21:31:25.189Z,37.73
2018-10-09T21:33:53.813Z,37.20
2018-10-09T21:36:22.571Z,39.17
2018-10-09T21:38:51.208Z,35.73
2018-10-09T21:41:19.878Z,39.30
2018-10-09T21:43:48.554Z,35.90
2018-10-09T21:46:17.230Z,38.30
2018-10-09T21:48:45.891Z,37.30
2018-10-09T21:51:14.509Z,37.40
2018-10-09T21:53:43.256Z,37.67
2018-10-09T21:56:11.889Z,39.27
2018-10-09T21:58:40.539Z,40.57
2018-10-09T22:01:09.309Z,39.20
2018-10-09T22:03:38.225Z,40.13
2018-10-09T22:06:07.081Z,40.90
2018-10-09T22:08:35.716Z,40.23
2018-10-09T22:11:04.357Z,40.37
2018-10-09T22:13:33.056Z,37.67
2018-10-09T22:16:01.723Z,37.57
2018-10-09T22:18:30.374Z,39.40
2018-10-09T22:20:59.077Z,37.10
2018-10-09T22:23:27.736Z,37.50
2018-10-09T22:25:56.402Z,38.27
2018-10-09T22:28:25.093Z,35.13
2018-10-09T22:30:53.744Z,34.83
2018-10-09T22:33:22.445Z,36.40
2018-10-09T22:35:51.137Z,36.10
2018-10-09T22:38:19.891Z,39.13
2018-10-09T22:40:48.503Z,37.57
2018-10-09T22:43:17.146Z,38.53
2018-10-09T22:45:45.825Z,39.80
2018-10-09T22:48:14.461Z,39.60
2018-10-09T22:50:43.128Z,38.67
2018-10-09T22:53:11.788Z,39.20
2018-10-09T22:55:40.457Z,37.13
2018-10-09T22:58:09.122Z,39.43
2018-10-09T23:00:37.752Z,39.73
2018-10-09T23:03:06.425Z,38.90
2018-10-09T23:05:35.070Z,35.90
2018-10-09T23:08:03.750Z,35.27
2018-10-09T23:10:32.404Z,39.00
2018-10-09T23:13:01.085Z,36.80
2018-10-09T23:15:29.713Z,36.23
2018-10-09T23:17:58.347Z,38.90
2018-10-09T23:20:27.047Z,39.97
2018-10-09T23:22:55.688Z,41.60
2018-10-09T23:25:24.313Z,39.47
2018-10-09T23:27:53.021Z,40.50
2018-10-09T23:30:21.689Z,39.90
2018-10-09T23:32:50.331Z,40.27
2018-10-09T23:35:19.010Z,41.70
2018-10-09T23:37:47.678Z,43.43
2018-10-09T23:40:16.358Z,40.43
2018-10-09T23:42:45.133Z,42.80
2018-10-09T23:45:13.707Z,41.80
2018-10-09T23:47:42.336Z,43.20
2018-10-09T23:50:10.976Z,41.70
2018-10-09T23:52:39.603Z,41.10
2018-10-09T23:55:08.336Z,39.43
2018-10-09T23:57:37.067Z,40.70
